Latest Weather Observations for PORTABLE NPWS NSW02

IDN60801

Issued at 10:03 pm EST Tuesday 4 August 2020 (issued every 10 minutes, with the page automatically refreshed every 10 minutes)

About weather observations | Map of weather stations | Latest weather observations for NSW | Other Formats
Station Details ID: 250099 Name: PORTABLE NPWS NSW02 Lat: -33.10 Lon: 150.07 Height: 983.0 m

Portable automatic weather stations (PAWS) are operated by other organisations, such as Fire and Emergency Services, and are included here by agreement. Portable stations may be deployed to a location for a short period and their location may be subject to change without notice. Wind observations from these stations are provided from heights of either three (3) or ten (10) metres above ground level (AGL).

Data from the previous 72 hours. | See also: Recent months for locations in New South Wales
Date/Time
EST
Temp
°C
App
Temp
°C
Dew
Point
°C
Rel
Hum
%
Delta-T
°C
Wind Press
QNH
hPa
Press
MSL
hPa
Rain since
9am
mm
Dir  Spd
km/h
Gust
km/h
Spd
kts
Gust
kts
04/09:50pm 3.1 -2.0 -1.6 71 1.8 WSW 15 20 8 11 - - 0.0
04/09:40pm 3.6 -0.7 -2.0 67 2.1 WNW 11 15 6 8 - - 0.0
04/09:30pm 3.8 -1.3 -2.3 64 2.3 WNW 15 20 8 11 - - 0.0
04/09:20pm 4.1 -1.0 -2.1 64 2.4 NW 15 19 8 10 - - 0.0
04/09:10pm 4.2 -2.9 -1.2 68 2.1 NW 26 35 14 19 - - 0.0
04/09:00pm 4.3 -1.3 0.1 74 1.7 WNW 19 33 10 18 - - 0.0
04/08:50pm 4.5 -0.6 0.6 76 1.6 W 17 28 9 15 - - 0.0
04/08:40pm 4.7 -1.0 0.8 76 1.6 W 20 24 11 13 - - 0.0
04/08:30pm 4.9 -0.5 1.2 77 1.5 W 19 24 10 13 - - 0.0
04/08:20pm 5.1 0.5 1.5 77 1.5 WNW 15 22 8 12 - - 0.0
04/08:10pm 5.2 0.2 1.6 77 1.5 W 17 20 9 11 - - 0.0
04/08:00pm 5.4 0.4 1.6 76 1.6 WNW 17 22 9 12 - - 0.0
04/07:50pm 5.6 0.3 1.6 75 1.7 WNW 19 28 10 15 - - 0.0
04/07:40pm 5.8 -0.5 1.4 73 1.9 NW 24 32 13 17 - - 0.0
04/07:30pm 5.9 0.9 1.5 73 1.9 NW 17 24 9 13 - - 0.0
04/07:20pm 6.1 1.9 1.6 73 1.9 WNW 13 20 7 11 - - 0.0
04/07:10pm 6.4 1.4 1.4 70 2.1 W 17 26 9 14 - - 0.0
04/07:00pm 6.6 1.0 1.4 69 2.2 WNW 20 28 11 15 - - 0.0
04/06:50pm 6.8 0.5 1.5 69 2.3 WNW 24 35 13 19 - - 0.0
04/06:40pm 7.0 0.7 1.7 69 2.3 NW 24 30 13 16 - - 0.0
04/06:30pm 7.3 1.8 1.8 68 2.4 WNW 20 32 11 17 - - 0.0
04/06:20pm 7.5 0.9 1.8 67 2.5 WNW 26 37 14 20 - - 0.0
04/06:10pm 7.8 1.6 1.9 66 2.6 W 24 32 13 17 - - 0.0
04/06:00pm 8.2 2.9 2.1 65 2.7 W 19 24 10 13 - - 0.0
04/05:50pm 8.6 4.1 2.2 64 2.8 WNW 15 19 8 10 - - 0.0
04/05:40pm 9.0 3.5 2.1 62 3.1 NW 20 32 11 17 - - 0.0
04/05:30pm 9.5 4.2 1.7 58 3.5 WNW 19 26 10 14 - - 0.0
04/05:20pm 9.9 4.0 1.4 55 3.7 WNW 22 30 12 16 - - 0.0
04/05:10pm 10.4 4.4 1.0 52 4.1 NW 22 35 12 19 - - 0.0
04/05:00pm 10.7 4.3 0.9 50 4.3 NW 24 50 13 27 - - 0.0
04/04:50pm 11.0 5.5 0.8 49 4.5 W 19 35 10 19 - - 0.0
04/04:40pm 11.2 5.7 0.8 48 4.6 NNW 19 28 10 15 - - 0.0
04/04:30pm 11.8 5.3 0.6 46 4.9 WNW 24 32 13 17 - - 0.0
04/04:20pm 12.1 6.0 0.7 45 5.0 NW 22 33 12 18 - - 0.0
04/04:10pm 12.4 7.7 0.9 45 5.1 WNW 15 19 8 10 - - 0.0
04/04:00pm 12.3 6.6 0.7 45 5.1 NW 20 28 11 15 - - 0.0
04/03:50pm 12.4 7.2 0.3 43 5.3 WNW 17 28 9 15 - - 0.0
04/03:40pm 12.3 5.4 0.1 43 5.3 NW 26 43 14 23 - - 0.0
04/03:30pm 12.7 6.2 0.0 41 5.6 WNW 24 35 13 19 - - 0.0
04/03:20pm 12.7 6.2 0.1 42 5.5 WNW 24 35 13 19 - - 0.0
04/03:10pm 12.6 6.0 -0.2 41 5.6 WNW 24 32 13 17 - - 0.0
04/03:00pm 12.6 6.1 0.0 42 5.5 NW 24 33 13 18 - - 0.0
04/02:50pm 12.7 6.6 0.4 43 5.4 NNW 22 32 12 17 - - 0.0
04/02:40pm 12.3 5.8 0.4 44 5.2 WNW 24 37 13 20 - - 0.0
04/02:30pm 12.6 6.1 0.0 42 5.5 WNW 24 37 13 20 - - 0.0
04/02:20pm 13.1 7.6 0.4 42 5.6 W 19 28 10 15 - - 0.0
04/02:10pm 12.7 5.8 0.4 43 5.4 NW 26 37 14 20 - - 0.0
04/02:00pm 13.2 7.6 1.0 43 5.5 WNW 20 33 11 18 - - 0.0
04/01:50pm 13.1 7.5 0.9 43 5.5 WNW 20 28 11 15 - - 0.0
04/01:40pm 12.7 6.2 0.6 43 5.4 NW 24 33 13 18 - - 0.0
04/01:30pm 12.9 7.3 0.2 41 5.6 NW 19 28 10 15 - - 0.0
04/01:20pm 12.9 7.4 0.5 42 5.5 WNW 19 32 10 17 - - 0.0
04/01:10pm 12.7 6.9 0.2 42 5.5 NW 20 32 11 17 - - 0.0
04/01:00pm 12.5 6.0 0.2 43 5.4 NW 24 32 13 17 - - 0.0
04/12:50pm 12.3 5.8 0.1 43 5.3 NW 24 43 13 23 - - 0.0
04/12:40pm 11.8 5.2 -0.1 44 5.2 N 24 33 13 18 - - 0.0
04/12:30pm 12.1 4.8 -0.3 42 5.4 NW 28 39 15 21 - - 0.0
04/12:20pm 12.0 3.3 -0.7 41 5.4 NNW 35 44 19 24 - - 0.0
04/12:10pm 12.4 5.4 -0.4 41 5.5 WNW 26 37 14 20 - - 0.0
04/12:00pm 12.8 6.7 0.1 41 5.6 WNW 22 30 12 16 - - 0.0
04/11:50am 12.4 5.5 0.2 43 5.4 WNW 26 35 14 19 - - 0.0
04/11:40am 12.3 5.8 0.3 43 5.3 WNW 24 30 13 16 - - 0.0
04/11:30am 12.2 5.7 0.3 44 5.2 NW 24 32 13 17 - - 0.0
04/11:20am 11.7 4.8 0.4 46 5.0 NW 26 46 14 25 - - 0.0
04/11:10am 11.5 4.6 0.2 45 4.9 WNW 26 35 14 19 - - 0.0
04/11:00am 11.7 5.2 0.1 45 5.0 NW 24 30 13 16 - - 0.0
04/10:50am 11.6 5.8 0.2 45 5.0 WNW 20 37 11 20 - - 0.0
04/10:40am 11.4 4.5 0.3 46 4.8 NW 26 41 14 22 - - 0.0
04/10:30am 11.5 5.9 0.1 45 5.0 WNW 19 30 10 16 - - 0.0
04/10:20am 11.3 4.7 -0.1 45 4.9 WNW 24 33 13 18 - - 0.0
04/10:10am 11.0 4.1 -0.1 46 4.8 NW 26 33 14 18 - - 0.0
04/10:00am 11.2 6.0 0.2 46 4.8 NW 17 20 9 11 - - 0.0
04/09:50am 10.8 5.1 0.4 48 4.5 WNW 20 26 11 14 - - 0.0
04/09:40am 10.5 4.9 0.2 49 4.4 NW 19 24 10 13 - - 0.0
04/09:30am 10.1 3.9 0.0 49 4.3 NW 22 33 12 18 - - 0.0
04/09:20am 9.9 4.7 0.0 50 4.2 NW 17 20 9 11 - - 0.0
04/09:10am 9.4 3.3 0.1 52 4.0 WNW 22 32 12 17 - - 0.0
04/09:00am 9.1 3.0 0.1 53 3.8 NW 22 37 12 20 - - 0.0
04/08:50am 9.0 2.8 -0.2 52 3.9 NW 22 26 12 14 - - 0.0
04/08:40am 8.8 3.2 -0.3 53 3.8 NW 19 33 10 18 - - 0.0
04/08:30am 8.6 2.8 -0.3 53 3.7 NW 20 32 11 17 - - 0.0
04/08:20am 8.4 2.7 -0.4 54 3.7 NW 19 30 10 16 - - 0.0
04/08:10am 8.2 2.0 -0.4 54 3.6 NW 22 33 12 18 - - 0.0
04/08:00am 8.2 1.2 -0.8 53 3.7 WNW 26 35 14 19 - - 0.0
04/07:50am 8.0 0.9 -1.0 53 3.7 WNW 26 33 14 18 - - 0.0
04/07:40am 7.7 1.3 -1.4 52 3.7 WNW 22 30 12 16 - - 0.0
04/07:30am 7.1 1.1 -1.7 53 3.5 WNW 20 26 11 14 - - 0.0
04/07:20am 6.9 0.4 -2.1 52 3.5 WNW 22 28 12 15 - - 0.0
04/07:10am 6.9 0.1 -2.2 52 3.6 WNW 24 28 13 15 - - 0.0
04/07:00am 6.8 0.3 -2.2 52 3.5 W 22 26 12 14 - - 0.0
04/06:50am 6.5 1.4 -2.2 54 3.4 WNW 15 24 8 13 - - 0.0
04/06:40am 6.4 0.4 -2.7 52 3.5 WNW 19 26 10 14 - - 0.0
04/06:30am 6.3 0.4 -2.4 54 3.4 WNW 19 22 10 12 - - 0.0
04/06:20am 5.9 0.5 -1.7 58 3.0 NW 17 22 9 12 - - 0.0
04/06:10am 5.7 0.7 -1.2 61 2.7 NNW 15 17 8 9 - - 0.0
04/06:00am 5.8 0.9 -0.8 62 2.7 NNW 15 19 8 10 - - 0.0
04/05:50am 5.8 0.5 -0.9 62 2.7 NNW 17 20 9 11 - - 0.0
04/05:40am 5.8 0.6 -0.1 66 2.4 NW 17 20 9 11 - - 0.0
04/05:30am 5.9 0.3 0.0 66 2.4 NW 19 22 10 12 - - 0.0
04/05:20am 5.9 0.7 0.1 66 2.4 NW 17 22 9 12 - - 0.0
04/05:10am 6.0 -0.1 0.5 68 2.3 NW 22 26 12 14 - - 0.0
04/05:00am 6.1 0.4 0.3 66 2.4 NW 20 24 11 13 - - 0.0
04/04:50am 6.2 1.0 0.4 66 2.4 NW 17 22 9 12 - - 0.0
04/04:40am 6.2 0.2 0.8 68 2.3 NW 22 30 12 16 - - 0.0
04/04:30am 6.2 0.2 0.9 69 2.2 NW 22 26 12 14 - - 0.0
04/04:20am 6.2 0.7 0.9 69 2.2 NW 19 24 10 13 - - 0.0
04/04:10am 6.3 0.6 0.7 67 2.3 W 20 28 11 15 - - 0.0
04/04:00am 6.4 0.7 0.6 66 2.4 WNW 20 26 11 14 - - 0.0
04/03:50am 6.3 2.0 0.7 67 2.3 NW 13 19 7 10 - - 0.0
04/03:40am 6.4 1.3 0.5 66 2.5 WNW 17 20 9 11 - - 0.0
04/03:30am 6.4 1.2 0.4 65 2.5 WNW 17 24 9 13 - - 0.0
04/03:20am 6.5 1.5 1.1 68 2.3 WNW 17 24 9 13 - - 0.0
04/03:10am 6.8 1.2 1.1 67 2.4 WNW 20 30 11 16 - - 0.0
04/03:00am 7.0 1.3 -0.6 58 3.1 WNW 19 28 10 15 - - 0.0
04/02:50am 7.2 1.3 -0.7 57 3.2 WNW 20 26 11 14 - - 0.0
04/02:40am 7.4 1.9 -2.2 50 3.8 NW 17 30 9 16 - - 0.0
04/02:30am 7.4 1.3 -2.3 50 3.8 NW 20 26 11 14 - - 0.0
04/02:20am 7.1 2.0 -1.8 53 3.5 WNW 15 20 8 11 - - 0.0
04/02:10am 7.1 1.4 -1.1 56 3.3 WNW 19 22 10 12 - - 0.0
04/02:00am 7.0 1.6 -1.3 55 3.3 WNW 17 22 9 12 - - 0.0
04/01:50am 7.1 2.2 -0.6 58 3.2 WNW 15 20 8 11 - - 0.0
04/01:40am 7.2 2.4 -0.1 60 3.0 WNW 15 20 8 11 - - 0.0
04/01:30am 7.3 1.7 -0.3 58 3.1 NW 19 20 10 11 - - 0.0
04/01:20am 7.3 2.5 0.2 60 3.0 NW 15 19 8 10 - - 0.0
04/01:10am 7.5 2.8 0.8 62 2.8 WNW 15 20 8 11 - - 0.0
04/01:00am 7.4 2.8 1.4 66 2.6 NW 15 19 8 10 - - 0.0
04/12:50am 7.5 2.5 1.3 65 2.7 NW 17 19 9 10 - - 0.0
04/12:40am 7.7 2.8 1.7 66 2.6 NW 17 20 9 11 - - 0.0
04/12:30am 7.8 2.4 1.5 64 2.7 NW 19 22 10 12 - - 0.0
04/12:20am 7.8 2.5 1.7 65 2.7 NW 19 26 10 14 - - 0.0
04/12:10am 7.8 2.9 1.8 66 2.6 NW 17 26 9 14 - - 0.0
04/12:00am 7.9 2.6 1.7 65 2.7 NW 19 24 10 13 - - 0.0
 
Date/Time
EST
Temp
°C
App
Temp
°C
Dew
Point
°C
Rel
Hum
%
Delta-T
°C
Wind Press
QNH
hPa
Press
MSL
hPa
Rain since
9am
mm
Dir  Spd
km/h
Gust
km/h
Spd
kts
Gust
kts
03/11:50pm 8.0 2.6 1.3 62 2.9 NW 19 20 10 11 - - 0.0
03/11:40pm 8.1 2.5 1.1 61 3.0 NW 20 24 11 13 - - 0.0
03/11:30pm 8.1 3.5 1.4 62 2.9 NW 15 19 8 10 - - 0.0
03/11:20pm 8.3 3.6 1.2 61 3.1 WNW 15 20 8 11 - - 0.0
03/11:10pm 8.5 3.1 1.2 60 3.2 WNW 19 26 10 14 - - 0.0
03/11:00pm 8.4 3.4 1.1 60 3.2 WNW 17 24 9 13 - - 0.0
03/10:50pm 8.6 3.2 1.2 59 3.2 WNW 19 24 10 13 - - 0.0
03/10:40pm 8.8 3.2 1.0 58 3.4 WNW 20 24 11 13 - - 0.0
03/10:30pm 8.9 2.9 1.0 57 3.4 WNW 22 30 12 16 - - 0.0
03/10:20pm 8.8 3.7 0.9 57 3.4 WNW 17 22 9 12 - - 0.0
03/10:10pm 8.8 3.2 1.1 58 3.3 NW 20 24 11 13 - - 0.0
03/10:00pm 8.8 3.8 1.1 58 3.3 WNW 17 22 9 12 - - 0.0
03/09:50pm 8.9 3.2 0.8 57 3.5 WNW 20 28 11 15 - - 0.0
03/09:40pm 8.9 2.9 1.1 58 3.4 NW 22 26 12 14 - - 0.0
03/09:30pm 8.9 3.3 1.3 59 3.3 NW 20 28 11 15 - - 0.0
03/09:20pm 8.9 3.2 0.6 56 3.6 NW 20 26 11 14 - - 0.0
03/09:10pm 8.8 3.1 0.5 56 3.5 NW 20 28 11 15 - - 0.0
03/09:00pm 8.7 4.0 1.1 59 3.3 NW 15 22 8 12 - - 0.0
03/08:50pm 8.8 3.4 1.2 59 3.3 WNW 19 24 10 13 - - 0.0
03/08:40pm 8.9 4.2 1.1 58 3.4 WNW 15 24 8 13 - - 0.0
03/08:30pm 9.0 4.2 0.5 55 3.6 WNW 15 17 8 9 - - 0.0
03/08:20pm 9.1 3.9 0.4 54 3.7 WNW 17 22 9 12 - - 0.0
03/08:10pm 9.1 4.2 -0.4 51 4.0 NW 15 17 8 9 - - 0.0
03/08:00pm 9.3 5.1 -0.9 49 4.2 NW 11 17 6 9 - - 0.0
03/07:50pm 9.4 4.8 -1.3 47 4.4 NW 13 19 7 10 - - 0.0
03/07:40pm 9.6 5.0 -0.9 48 4.4 WNW 13 17 7 9 - - 0.0
03/07:30pm 9.6 5.4 -1.1 47 4.4 WNW 11 15 6 8 - - 0.0
03/07:20pm 9.7 5.4 -1.6 45 4.6 WNW 11 19 6 10 - - 0.0
03/07:00pm 10.0 5.2 -2.3 42 5.0 WNW 13 17 7 9 - - 0.0
03/06:50pm 10.1 5.0 -2.3 42 5.0 WNW 15 20 8 11 - - 0.0
03/06:40pm 10.2 4.9 -3.8 37 5.5 NW 15 19 8 10 - - 0.0
03/06:30pm 10.2 5.2 -4.1 36 5.6 WNW 13 17 7 9 - - 0.0
03/06:20pm 10.3 5.6 -4.6 35 5.7 WNW 11 15 6 8 - - 0.0
03/06:10pm 10.4 6.2 -3.8 36 5.6 WNW 9 15 5 8 - - 0.0
03/06:00pm 10.5 5.1 -4.4 35 5.8 WNW 15 20 8 11 - - 0.0
03/05:50pm 10.6 5.2 -4.8 33 5.9 W 15 22 8 12 - - 0.0
03/05:40pm 10.6 5.9 -5.0 33 6.0 W 11 20 6 11 - - 0.0
03/05:30pm 10.8 6.1 -5.1 32 6.1 WNW 11 15 6 8 - - 0.0
03/05:20pm 11.0 6.3 -5.3 31 6.2 WNW 11 15 6 8 - - 0.0
03/05:10pm 11.3 6.1 -5.7 30 6.5 W 13 22 7 12 - - 0.0
03/05:00pm 11.7 6.1 -6.9 26 6.9 WNW 15 24 8 13 - - 0.0
03/04:50pm 12.1 6.9 -6.1 27 6.9 WNW 13 22 7 12 - - 0.0
03/04:40pm 12.3 6.7 -6.4 26 7.1 NW 15 19 8 10 - - 0.0
03/04:30pm 12.6 7.5 -5.6 27 7.0 WNW 13 22 7 12 - - 0.0
03/04:20pm 12.6 7.4 -5.7 27 7.1 WNW 13 19 7 10 - - 0.0
03/04:10pm 12.8 8.0 -5.8 27 7.2 WNW 11 19 6 10 - - 0.0
03/04:00pm 12.8 7.7 -5.4 27 7.1 WNW 13 20 7 11 - - 0.0
03/03:50pm 13.1 7.9 -6.1 26 7.4 WNW 13 19 7 10 - - 0.0
03/03:40pm 13.3 7.3 -6.5 24 7.6 WNW 17 19 9 10 - - 0.0
03/03:30pm 13.4 7.8 -6.7 24 7.7 WNW 15 19 8 10 - - 0.0
03/03:20pm 13.3 7.7 -6.6 24 7.6 WNW 15 19 8 10 - - 0.0
03/03:10pm 13.5 7.1 -6.9 23 7.7 WNW 19 24 10 13 - - 0.0
03/03:00pm 13.7 8.1 -6.8 23 7.8 NW 15 20 8 11 - - 0.0
03/02:50pm 14.2 9.1 -5.6 25 7.8 WNW 13 20 7 11 - - 0.0
03/02:40pm 14.2 8.7 -5.4 25 7.7 W 15 20 8 11 - - 0.0
03/02:30pm 14.2 9.1 -4.8 26 7.6 NW 13 22 7 12 - - 0.0
03/02:20pm 14.1 8.6 -5.0 26 7.6 WNW 15 20 8 11 - - 0.0
03/02:10pm 14.0 8.1 -5.6 25 7.7 NW 17 20 9 11 - - 0.0
03/02:00pm 14.0 8.4 -6.6 23 7.9 WNW 15 24 8 13 - - 0.0
03/01:50pm 13.8 8.1 -7.9 21 8.1 NW 15 24 8 13 - - 0.0
03/01:40pm 13.5 7.7 -8.7 20 8.1 NNW 15 26 8 14 - - 0.0
03/01:30pm 13.7 8.2 -9.6 19 8.4 NNW 13 22 7 12 - - 0.0
03/01:20pm 13.6 6.7 -10.8 17 8.5 NNW 20 28 11 15 - - 0.0
03/01:10pm 14.0 7.7 -10.4 17 8.6 NW 17 24 9 13 - - 0.0
03/01:00pm 13.8 6.6 -10.0 18 8.5 NNW 22 26 12 14 - - 0.0
03/12:50pm 14.2 7.9 -9.7 18 8.6 NNW 17 24 9 13 - - 0.0
03/12:40pm 14.1 8.3 -9.1 19 8.4 N 15 26 8 14 - - 0.0
03/12:30pm 14.0 7.2 -9.2 19 8.4 NNW 20 26 11 14 - - 0.0
03/12:20pm 14.3 8.6 -7.8 21 8.3 NW 15 22 8 12 - - 0.0
03/12:10pm 14.3 9.3 -4.7 26 7.6 WNW 13 20 7 11 - - 0.0
03/12:00pm 13.7 8.3 -4.9 27 7.4 NW 15 19 8 10 - - 0.0
03/11:50am 13.1 7.3 -4.3 29 7.0 NW 17 20 9 11 - - 0.0
03/11:40am 13.6 8.6 -4.5 28 7.2 NW 13 20 7 11 - - 0.0
03/11:30am 13.8 9.8 -2.5 32 6.8 NW 9 13 5 7 - - 0.0
03/11:20am 13.4 9.0 -2.5 33 6.6 NW 11 19 6 10 - - 0.0
03/11:10am 13.1 8.4 -2.1 35 6.4 NNW 13 17 7 9 - - 0.0
03/11:00am 13.3 9.2 -2.7 33 6.6 NW 9 17 5 9 - - 0.0
03/10:50am 13.4 8.8 -3.8 30 7.0 WNW 11 15 6 8 - - 0.0
03/10:40am 13.4 8.6 -2.8 32 6.7 NW 13 19 7 10 - - 0.0
03/10:30am 13.2 9.1 -2.8 33 6.6 WNW 9 13 5 7 - - 0.0
03/10:20am 12.6 8.5 -2.7 34 6.3 W 9 13 5 7 - - 0.0
03/10:10am 12.7 8.9 -3.6 32 6.6 WNW 7 9 4 5 - - 0.0
03/10:00am 12.6 8.8 -3.5 32 6.5 WNW 7 7 4 4 - - 0.0
03/09:50am 12.0 8.0 -5.4 29 6.7 WNW 7 9 4 5 - - 0.0
03/09:40am 11.1 7.3 -3.9 34 5.9 NW 7 7 4 4 - - 0.0
03/09:30am 11.0 7.2 -3.9 35 5.9 NW 7 9 4 5 - - 0.0
03/09:20am 10.7 6.9 -3.5 36 5.6 NNW 7 11 4 6 - - 0.0
03/09:10am 11.4 7.6 -3.9 34 6.1 NW 7 9 4 5 - - 0.0
03/09:00am 12.1 7.6 -6.6 26 7.0 NW 9 9 5 5 - - 0.0
03/08:50am 12.2 7.9 -8.7 22 7.5 NW 7 11 4 6 - - 0.0
03/08:40am 11.7 7.1 -8.5 23 7.2 NW 9 9 5 5 - - 0.0
03/08:30am 11.0 6.9 -7.0 27 6.6 NW 7 9 4 5 - - 0.0
03/08:20am 10.6 6.1 -6.7 29 6.4 NW 9 11 5 6 - - 0.0
03/08:10am 10.1 5.2 -7.5 28 6.3 NW 11 13 6 7 - - 0.0
03/08:00am 10.2 5.6 -7.7 27 6.4 NW 9 11 5 6 - - 0.0
03/07:50am 9.8 5.3 -7.2 29 6.1 NW 9 11 5 6 - - 0.0
03/07:40am 9.2 4.7 -6.6 32 5.7 NW 9 11 5 6 - - 0.0
03/07:30am 8.8 4.3 -6.5 33 5.5 NW 9 11 5 6 - - 0.0
03/07:20am 8.7 4.2 -7.0 32 5.6 WNW 9 9 5 5 - - 0.0
03/07:10am 8.6 4.1 -7.1 32 5.6 WNW 9 13 5 7 - - 0.0
03/07:00am 8.5 4.1 -5.8 36 5.2 WNW 9 11 5 6 - - 0.0
03/06:50am 8.8 4.4 -5.7 35 5.4 WNW 9 11 5 6 - - 0.0
03/06:40am 8.8 4.4 -5.7 35 5.4 WNW 9 11 5 6 - - 0.0
03/06:30am 8.9 4.5 -5.7 35 5.4 WNW 9 13 5 7 - - 0.0
03/06:20am 8.9 4.5 -5.5 35 5.3 WNW 9 11 5 6 - - 0.0
03/06:10am 8.8 4.1 -5.5 36 5.3 W 11 13 6 7 - - 0.0
03/06:00am 8.6 4.2 -5.5 36 5.2 W 9 13 5 7 - - 0.0
03/05:50am 8.2 3.9 -5.2 38 5.0 WNW 9 11 5 6 - - 0.0
03/05:40am 8.0 3.7 -4.9 39 4.8 WNW 9 11 5 6 - - 0.0
03/05:30am 8.2 4.3 -4.2 41 4.7 WNW 7 7 4 4 - - 0.0
03/05:20am 8.1 4.2 -4.4 41 4.7 WNW 7 7 4 4 - - 0.0
03/05:10am 8.2 4.3 -4.3 41 4.7 NW 7 9 4 5 - - 0.0
03/05:00am 8.2 4.3 -4.4 40 4.8 WNW 7 9 4 5 - - 0.0
03/04:50am 8.1 4.2 -4.2 41 4.7 WNW 7 9 4 5 - - 0.0
03/04:40am 8.0 4.2 -3.9 43 4.5 WNW 7 9 4 5 - - 0.0
03/04:30am 7.9 4.2 -3.1 45 4.3 NW 7 7 4 4 - - 0.0
03/04:20am 7.8 4.3 -3.1 46 4.2 NW 6 7 3 4 - - 0.0
03/04:10am 7.9 4.4 -2.5 48 4.1 NW 6 7 3 4 - - 0.0
03/04:00am 8.0 4.9 -2.4 48 4.1 NW 4 7 2 4 - - 0.0
03/03:50am 8.0 4.5 -2.5 47 4.1 NNW 6 7 3 4 - - 0.0
03/03:40am 8.2 4.8 -2.3 47 4.2 NNW 6 6 3 3 - - 0.0
03/03:30am 8.3 5.6 -2.5 46 4.3 NNW 2 4 1 2 - - 0.0
03/03:20am 8.5 5.4 -2.7 45 4.4 WNW 4 7 2 4 - - 0.0
03/03:10am 8.5 5.0 -2.7 45 4.4 W 6 7 3 4 - - 0.0
03/03:00am 8.6 5.1 -2.6 45 4.4 W 6 7 3 4 - - 0.0
03/02:50am 8.7 5.6 -2.3 46 4.4 W 4 7 2 4 - - 0.0
03/02:40am 8.8 5.4 -2.3 45 4.4 W 6 7 3 4 - - 0.0
03/02:30am 8.8 5.4 -2.4 45 4.5 WNW 6 7 3 4 - - 0.0
03/02:20am 8.8 5.4 -2.4 45 4.5 W 6 6 3 3 - - 0.0
03/02:10am 8.8 5.4 -2.3 45 4.4 WNW 6 7 3 4 - - 0.0
03/02:00am 8.8 5.4 -2.4 45 4.5 WNW 6 7 3 4 - - 0.0
03/01:50am 8.7 5.0 -2.6 45 4.5 WNW 7 9 4 5 - - 0.0
03/01:40am 8.6 5.2 -2.4 46 4.4 NW 6 6 3 3 - - 0.0
03/01:30am 8.7 5.3 -2.3 46 4.4 NW 6 6 3 3 - - 0.0
03/01:20am 8.7 5.3 -2.4 45 4.4 WNW 6 6 3 3 - - 0.0
03/01:10am 8.7 5.2 -2.5 45 4.5 NW 6 6 3 3 - - 0.0
03/01:00am 8.7 5.6 -2.4 45 4.4 NW 4 6 2 3 - - 0.0
03/12:50am 8.6 5.2 -2.4 46 4.4 NNW 6 6 3 3 - - 0.0
03/12:40am 8.7 5.3 -2.4 45 4.4 NNW 6 6 3 3 - - 0.0
03/12:30am 8.7 5.2 -2.6 45 4.5 NW 6 6 3 3 - - 0.0
03/12:20am 8.8 5.3 -2.7 44 4.6 NW 6 7 3 4 - - 0.0
03/12:10am 8.9 5.2 -2.8 43 4.6 NW 7 7 4 4 - - 0.0
03/12:00am 9.1 5.6 -3.0 42 4.8 WNW 6 6 3 3 - - 0.0
 
Date/Time
EST
Temp
°C
App
Temp
°C
Dew
Point
°C
Rel
Hum
%
Delta-T
°C
Wind Press
QNH
hPa
Press
MSL
hPa
Rain since
9am
mm
Dir  Spd
km/h
Gust
km/h
Spd
kts
Gust
kts
02/11:50pm 9.2 5.7 -3.2 41 4.9 W 6 6 3 3 - - 0.0
02/11:40pm 9.0 5.5 -3.2 42 4.8 W 6 7 3 4 - - 0.0
02/11:30pm 8.8 5.3 -2.8 44 4.6 SW 6 7 3 4 - - 0.0
02/11:20pm 9.4 5.9 -2.6 43 4.8 SW 6 6 3 3 - - 0.0
02/11:10pm 10.0 6.4 -3.5 38 5.3 W 6 7 3 4 - - 0.0
02/11:00pm 10.1 6.3 -3.7 37 5.4 W 7 9 4 5 - - 0.0
02/10:50pm 9.9 5.7 -4.0 37 5.4 W 9 13 5 7 - - 0.0
02/10:40pm 9.7 5.9 -4.1 37 5.3 W 7 9 4 5 - - 0.0
02/10:30pm 9.7 6.5 -3.8 38 5.3 SW 4 6 2 3 - - 0.0
02/10:20pm 10.1 6.5 -4.0 37 5.5 WSW 6 7 3 4 - - 0.0
02/10:10pm 10.2 6.5 -4.3 36 5.6 WSW 6 7 3 4 - - 0.0
02/10:00pm 10.2 6.9 -4.1 36 5.6 W 4 6 2 3 - - 0.0
02/09:50pm 10.1 6.4 -4.5 35 5.6 WSW 6 9 3 5 - - 0.0
02/09:40pm 9.9 6.0 -4.7 35 5.6 SW 7 9 4 5 - - 0.0
02/09:30pm 9.8 6.1 -4.6 36 5.5 SSW 6 7 3 4 - - 0.0
02/09:20pm 9.8 5.9 -4.6 36 5.5 SSW 7 7 4 4 - - 0.0
02/09:10pm 9.7 5.8 -4.4 36 5.4 SW 7 9 4 5 - - 0.0
02/09:00pm 9.7 5.8 -4.7 36 5.5 SSW 7 9 4 5 - - 0.0
02/08:50pm 9.7 5.7 -5.2 34 5.6 SSW 7 9 4 5 - - 0.0
02/08:40pm 9.7 5.7 -5.4 34 5.7 SSW 7 9 4 5 - - 0.0
02/08:30pm 9.8 5.4 -5.5 33 5.7 SSW 9 11 5 6 - - 0.0
02/08:20pm 9.8 5.4 -5.9 32 5.8 SSW 9 11 5 6 - - 0.0
02/08:10pm 9.9 5.5 -6.3 31 6.0 SSW 9 11 5 6 - - 0.0
02/08:00pm 9.9 5.5 -6.3 31 6.0 SSW 9 13 5 7 - - 0.0
02/07:50pm 10.1 5.7 -5.4 33 5.9 SSW 9 11 5 6 - - 0.0
02/07:40pm 10.1 5.7 -5.4 33 5.9 SSW 9 11 5 6 - - 0.0
02/07:30pm 10.1 5.7 -5.5 33 5.9 SSW 9 11 5 6 - - 0.0
02/07:20pm 10.1 5.7 -5.6 32 5.9 SSW 9 11 5 6 - - 0.0
02/07:10pm 10.0 5.6 -6.3 31 6.0 SSW 9 11 5 6 - - 0.0
02/07:00pm 10.0 5.5 -6.5 30 6.1 SSW 9 11 5 6 - - 0.0
02/06:50pm 10.2 6.1 -6.4 30 6.1 SSW 7 9 4 5 - - 0.0
02/06:40pm 10.5 6.0 -6.8 29 6.4 SW 9 11 5 6 - - 0.0
02/06:30pm 10.6 6.1 -7.2 28 6.5 SW 9 11 5 6 - - 0.0
02/06:20pm 10.5 5.9 -7.5 27 6.5 SSW 9 11 5 6 - - 0.0
02/06:10pm 10.6 6.0 -7.7 27 6.6 SSW 9 13 5 7 - - 0.0
02/06:00pm 11.0 6.4 -7.4 27 6.7 SSW 9 9 5 5 - - 0.0
02/05:50pm 11.6 7.1 -6.9 27 6.9 SW 9 11 5 6 - - 0.0
02/05:40pm 12.0 7.0 -7.7 24 7.2 SW 11 13 6 7 - - 0.0
02/05:30pm 12.3 7.3 -8.0 23 7.4 WSW 11 15 6 8 - - 0.0
02/05:20pm 12.8 7.9 -6.7 25 7.4 WSW 11 15 6 8 - - 0.0
02/05:10pm 13.3 8.5 -5.7 26 7.4 WSW 11 11 6 6 - - 0.0
02/05:00pm 13.7 8.9 -6.4 24 7.7 W 11 13 6 7 - - 0.0
02/04:50pm 13.7 9.2 -6.5 24 7.8 W 9 11 5 6 - - 0.0
02/04:40pm 13.7 8.8 -7.4 22 7.9 W 11 11 6 6 - - 0.0
02/04:30pm 14.3 9.3 -7.7 21 8.3 WSW 11 13 6 7 - - 0.0
02/04:20pm 15.3 10.5 -6.1 22 8.4 WSW 11 13 6 7 - - 0.0
02/04:10pm 15.5 11.2 -4.7 24 8.2 NW 9 13 5 7 - - 0.0
02/04:00pm 15.1 10.6 -3.3 28 7.7 NNW 11 17 6 9 - - 0.0
02/03:50pm 15.9 12.3 -2.0 29 7.7 NNW 7 11 4 6 - - 0.0
02/03:40pm 15.9 12.1 -1.1 31 7.5 NNW 9 13 5 7 - - 0.0
02/03:30pm 16.0 12.1 -1.3 30 7.6 NNW 9 15 5 8 - - 0.0
02/03:20pm 16.1 12.6 -1.4 30 7.7 WNW 7 9 4 5 - - 0.0
02/03:10pm 15.8 11.7 -0.2 33 7.2 NNW 11 17 6 9 - - 0.0
02/03:00pm 16.0 12.8 0.6 35 7.0 NNW 7 17 4 9 - - 0.0
02/02:50pm 15.9 12.3 0.9 36 6.9 NNW 9 13 5 7 - - 0.0
02/02:40pm 15.9 12.4 1.0 36 6.9 NNW 9 13 5 7 - - 0.0
02/02:30pm 16.0 12.8 0.8 35 7.0 NNW 7 15 4 8 - - 0.0
02/02:20pm 16.1 12.8 0.1 33 7.2 NNW 7 11 4 6 - - 0.0
02/02:10pm 15.9 12.4 1.3 37 6.8 NNW 9 11 5 6 - - 0.0
02/02:00pm 15.9 12.1 -0.8 32 7.4 NNW 9 15 5 8 - - 0.0
02/01:50pm 15.7 12.4 0.3 35 7.0 NW 7 11 4 6 - - 0.0
02/01:40pm 15.5 12.0 1.3 38 6.6 NW 9 15 5 8 - - 0.0
02/01:30pm 15.6 12.8 1.9 39 6.4 NW 6 9 3 5 - - 0.0
02/01:20pm 15.2 12.0 2.9 43 5.9 NNW 9 9 5 5 - - 0.0
02/01:10pm 15.3 12.5 3.3 44 5.8 NNW 7 9 4 5 - - 0.0
02/01:00pm 15.2 12.0 3.2 44 5.7 NNW 9 13 5 7 - - 0.0
02/12:50pm 15.5 12.7 3.1 43 5.9 NNW 7 11 4 6 - - 0.0
02/12:40pm 15.7 13.2 3.5 44 5.9 NNW 6 7 3 4 - - 0.0
02/12:30pm 15.6 13.1 4.0 46 5.7 NW 6 7 3 4 - - 0.0
02/12:20pm 15.2 12.7 3.7 46 5.6 NW 6 7 3 4 - - 0.0
02/12:10pm 15.1 12.7 4.5 49 5.2 NW 6 7 3 4 - - 0.0
02/12:00pm 15.0 12.5 3.8 47 5.4 NW 6 7 3 4 - - 0.0
02/11:50am 15.3 12.7 3.2 44 5.8 WNW 6 7 3 4 - - 0.0
02/11:40am 14.9 11.4 -3.2 28 7.6 W 6 9 3 5 - - 0.0
02/11:30am 15.1 11.7 -2.2 30 7.4 WSW 6 9 3 5 - - 0.0
02/11:20am 14.8 12.0 2.0 42 6.0 WSW 6 7 3 4 - - 0.0
02/11:10am 14.7 11.5 1.0 39 6.2 W 7 7 4 4 - - 0.0
02/11:00am 15.5 11.9 -2.3 29 7.6 WSW 7 9 4 5 - - 0.0
02/10:50am 15.7 11.7 -5.6 22 8.5 SW 7 11 4 6 - - 0.0
02/10:40am 15.8 12.0 -5.2 23 8.5 SSW 6 7 3 4 - - 0.0
02/10:30am 15.6 11.6 -7.1 20 8.8 SSW 6 7 3 4 - - 0.0
02/10:20am 15.5 11.9 -7.3 20 8.8 SSW 4 7 2 4 - - 0.0
02/10:10am 15.2 11.2 -7.2 20 8.6 SSW 6 9 3 5 - - 0.0
02/10:00am 15.0 10.9 -8.8 18 8.8 SSW 6 7 3 4 - - 0.0
02/09:50am 14.5 10.2 -9.1 18 8.6 SSW 7 11 4 6 - - 0.0
02/09:40am 14.4 10.4 -8.1 20 8.4 SSW 6 11 3 6 - - 0.0
02/09:30am 14.0 9.9 -8.9 19 8.4 SSW 6 7 3 4 - - 0.0
02/09:20am 13.6 9.2 -10.0 18 8.4 SSW 7 11 4 6 - - 0.0
02/09:10am 13.5 9.4 -8.9 20 8.1 SSW 6 9 3 5 - - 0.0
02/09:00am 12.9 8.8 -9.4 20 7.9 SSW 6 6 3 3 - - 0.0
02/08:50am 12.4 8.3 -8.8 22 7.6 SSW 6 7 3 4 - - 0.0
02/08:40am 11.6 7.2 -10.5 20 7.6 S 7 11 4 6 - - 0.0
02/08:30am 11.0 6.7 -8.6 24 6.9 S 7 9 4 5 - - 0.0
02/08:20am 10.3 5.6 -9.0 25 6.7 SSW 9 9 5 5 - - 0.0
02/08:10am 9.6 5.2 -10.0 24 6.6 SSW 7 9 4 5 - - 0.0
02/08:00am 8.7 4.4 -9.0 27 6.0 SSW 7 9 4 5 - - 0.0
02/07:50am 8.2 3.5 -9.1 28 5.8 SSW 9 9 5 5 - - 0.0
02/07:40am 7.6 3.3 -9.4 29 5.7 SSW 7 9 4 5 - - 0.0
02/07:30am 6.7 2.2 -11.6 26 5.7 SSW 7 9 4 5 - - 0.0
02/07:20am 6.4 2.1 -11.4 27 5.5 SSW 6 9 3 5 - - 0.0
02/07:00am 6.1 1.7 -9.7 31 5.1 SSW 7 9 4 5 - - 0.0
02/06:50am 6.0 1.5 -11.0 28 5.3 SSW 7 9 4 5 - - 0.0
02/06:40am 6.2 1.5 -9.4 32 5.1 SSW 9 9 5 5 - - 0.0
02/06:30am 6.6 2.2 -9.8 30 5.3 SSW 7 7 4 4 - - 0.0
02/06:20am 6.8 2.6 -10.7 27 5.6 SSW 6 7 3 4 - - 0.0
02/06:10am 6.9 2.9 -12.5 23 5.9 SSW 4 7 2 4 - - 0.0
02/06:00am 6.8 2.4 -13.0 23 6.0 SSW 6 6 3 3 - - 0.0
02/05:50am 6.6 2.3 -11.6 26 5.7 SSW 6 6 3 3 - - 0.0
02/05:40am 6.9 3.0 -11.6 25 5.8 SSW 4 4 2 2 - - 0.0
02/05:30am 7.0 3.5 -11.3 26 5.8 S 2 4 1 2 - - 0.0
02/05:20am 7.3 3.0 -10.8 26 5.8 SW 6 7 3 4 - - 0.0
02/05:00am 6.9 2.5 -10.0 29 5.5 SW 7 9 4 5 - - 0.0
02/04:50am 6.6 2.3 -8.7 32 5.1 SW 7 9 4 5 - - 0.0
02/04:40am 6.4 2.2 -7.5 36 4.8 SW 7 9 4 5 - - 0.0
02/04:30am 6.3 2.3 -6.0 41 4.4 SW 7 7 4 4 - - 0.0
02/04:20am 6.4 2.4 -5.3 43 4.2 SW 7 9 4 5 - - 0.0
02/04:10am 6.3 2.3 -5.5 42 4.2 SW 7 9 4 5 - - 0.0
02/04:00am 6.4 2.7 -4.9 44 4.1 SW 6 7 3 4 - - 0.0
02/03:50am 6.8 3.3 -2.9 50 3.7 WNW 6 6 3 3 - - 0.0
02/03:40am 6.8 3.1 -4.1 45 4.1 W 6 6 3 3 - - 0.0
02/03:30am 6.6 2.9 -4.4 45 4.1 WSW 6 7 3 4 - - 0.0
02/03:20am 6.4 2.8 -3.3 50 3.7 W 6 7 3 4 - - 0.0
02/03:10am 6.7 3.4 -1.2 57 3.2 W 6 6 3 3 - - 0.0
02/03:00am 6.9 3.5 -2.0 53 3.5 WNW 6 6 3 3 - - 0.0
02/02:50am 6.8 3.3 -2.8 50 3.7 W 6 7 3 4 - - 0.0
02/02:40am 6.8 3.4 -2.1 53 3.5 W 6 7 3 4 - - 0.0
02/02:30am 6.8 3.4 -2.3 52 3.6 W 6 6 3 3 - - 0.0
02/02:20am 6.5 3.0 -3.1 50 3.7 W 6 7 3 4 - - 0.0
02/02:10am 6.0 2.5 -1.0 61 2.8 WSW 7 7 4 4 - - 0.0
02/02:00am 5.7 2.7 0.6 70 2.1 SW 6 7 3 4 - - 0.0
02/01:50am 5.8 2.7 0.3 68 2.3 SSW 6 6 3 3 - - 0.0
02/01:40am 5.8 2.7 0.4 68 2.2 SSW 6 7 3 4 - - 0.0
02/01:30am 5.8 2.7 1.3 73 1.9 SSW 7 9 4 5 - - 0.0
02/01:20am 5.8 2.6 0.6 69 2.2 SSW 7 11 4 6 - - 0.0
02/01:10am 5.9 3.0 2.7 80 1.4 SSW 7 9 4 5 - - 0.0
02/01:00am 6.0 3.1 2.7 79 1.4 SSW 7 11 4 6 - - 0.0
02/12:50am 6.1 2.9 3.1 81 1.3 SSW 9 11 5 6 - - 0.0
02/12:40am 6.1 3.3 3.1 81 1.3 S 7 9 4 5 - - 0.0
02/12:30am 6.2 3.4 3.4 82 1.3 SSW 7 9 4 5 - - 0.0
02/12:20am 6.4 4.0 2.0 73 1.9 WSW 4 6 2 3 - - 0.0
02/12:10am 6.3 3.7 3.3 81 1.3 S 6 6 3 3 - - 0.0
02/12:00am 6.5 3.9 3.3 80 1.4 S 6 7 3 4 - - 0.0
 
Date/Time
EST
Temp
°C
App
Temp
°C
Dew
Point
°C
Rel
Hum
%
Delta-T
°C
Wind Press
QNH
hPa
Press
MSL
hPa
Rain since
9am
mm
Dir  Spd
km/h
Gust
km/h
Spd
kts
Gust
kts
01/11:50pm 6.5 4.0 3.8 83 1.2 S 6 7 3 4 - - 0.0
01/11:40pm 6.7 4.2 3.8 82 1.3 SW 6 7 3 4 - - 0.0
01/11:30pm 6.9 4.4 3.8 81 1.4 WSW 6 7 3 4 - - 0.0
01/11:20pm 7.1 4.5 4.0 81 1.4 WSW 7 9 4 5 - - 0.0
01/11:10pm 7.3 4.8 4.0 79 1.5 W 6 9 3 5 - - 0.0
01/11:00pm 7.3 4.8 3.7 78 1.6 WNW 6 7 3 4 - - 0.0
01/10:50pm 7.5 5.1 4.1 79 1.6 W 6 9 3 5 - - 0.0
01/10:40pm 7.6 5.1 3.9 77 1.7 WNW 6 9 3 5 - - 0.0
01/10:30pm 7.8 5.3 3.9 76 1.8 W 6 7 3 4 - - 0.0
01/10:20pm 7.9 5.2 3.7 75 1.9 WNW 7 9 4 5 - - 0.0
01/10:10pm 7.9 5.2 3.7 75 1.9 NW 7 9 4 5 - - 0.0

Other formats

Comma delimited format used in spreadsheet applications
http://www.bom.gov.au/fwo/IDN60801/IDN60801.99999.axf

JavaScript Object Notation format (JSON) in row-major order
http://www.bom.gov.au/fwo/IDN60801/IDN60801.99999.json

Data quality

Most of these data are generated automatically and are frequently updated. Quality checks on data are not normally performed. It is possible for incorrect values to appear. Refer to information at About Latest Weather Observations and please check the disclaimer before using these data.